createdAt,value
2022-08-29T00:01:15.081Z,101097.56
2022-08-29T00:05:19.567Z,101095.69
2022-08-29T00:09:29.556Z,101097.91
2022-08-29T00:13:32.618Z,101095.66
2022-08-29T00:17:36.091Z,101090.03
2022-08-29T00:21:39.318Z,101097.13
2022-08-29T00:25:43.691Z,101094.16
2022-08-29T00:29:46.799Z,101089.25
2022-08-29T00:33:51.329Z,101103.44
2022-08-29T00:37:54.813Z,101112.78
2022-08-29T00:41:59.462Z,101114.88
2022-08-29T00:46:13.058Z,101118.69
2022-08-29T00:50:24.581Z,101116.22
2022-08-29T00:54:28.116Z,101113.47
2022-08-29T00:58:37.021Z,101116.03
2022-08-29T01:02:41.655Z,101128.50
2022-08-29T01:06:44.989Z,101109.94
2022-08-29T01:11:06.349Z,101110.78
2022-08-29T01:15:13.576Z,101126.00
2022-08-29T01:19:37.623Z,101123.88
2022-08-29T01:23:46.071Z,101133.81
2022-08-29T01:27:55.998Z,101141.81
2022-08-29T01:31:59.157Z,101147.91
2022-08-29T01:36:02.391Z,101139.06
2022-08-29T01:40:06.383Z,101148.94
2022-08-29T01:44:13.681Z,101148.75
2022-08-29T01:48:17.124Z,101149.38
2022-08-29T01:52:21.052Z,101142.38
2022-08-29T01:56:27.673Z,101151.66
2022-08-29T02:00:32.356Z,101163.47
2022-08-29T02:04:36.130Z,101168.97
2022-08-29T02:08:39.935Z,101168.50
2022-08-29T02:12:43.841Z,101167.41
2022-08-29T02:16:48.644Z,101162.97
2022-08-29T02:20:51.696Z,101162.09
2022-08-29T02:24:55.559Z,101169.28
2022-08-29T02:28:58.855Z,101157.44
2022-08-29T02:33:04.913Z,101153.59
2022-08-29T02:37:09.011Z,101155.88
2022-08-29T02:41:14.273Z,101158.59
2022-08-29T02:45:17.734Z,101150.56
2022-08-29T02:49:22.423Z,101142.56
2022-08-29T02:53:28.012Z,101144.59
2022-08-29T02:57:31.126Z,101133.16
2022-08-29T03:01:34.361Z,101130.44
2022-08-29T03:05:39.309Z,101120.75
2022-08-29T03:09:42.450Z,101122.75
2022-08-29T03:13:46.222Z,101114.84
2022-08-29T03:17:49.639Z,101120.66
2022-08-29T03:21:54.034Z,101118.31
2022-08-29T03:25:57.079Z,101108.41
2022-08-29T03:30:00.929Z,101106.63
2022-08-29T03:34:04.627Z,101097.09
2022-08-29T03:38:09.174Z,101108.47
2022-08-29T03:42:12.317Z,101109.50
2022-08-29T03:46:15.399Z,101107.97
2022-08-29T03:50:20.181Z,101104.31
2022-08-29T03:54:24.970Z,101097.16
2022-08-29T03:58:28.043Z,101096.97
2022-08-29T04:02:31.156Z,101090.72
2022-08-29T04:06:34.661Z,101094.13
2022-08-29T04:10:40.140Z,101102.69
2022-08-29T04:14:44.136Z,101112.59
2022-08-29T04:18:47.663Z,101111.31
2022-08-29T04:22:50.882Z,101109.56
2022-08-29T04:26:55.312Z,101114.16
2022-08-29T04:30:58.913Z,101117.97
2022-08-29T04:35:01.951Z,101117.09
2022-08-29T04:39:06.873Z,101098.56
2022-08-29T04:43:11.984Z,101110.38
2022-08-29T04:47:15.837Z,101119.94
2022-08-29T04:51:19.044Z,101120.28
2022-08-29T04:55:25.869Z,101112.91
2022-08-29T04:59:31.162Z,101120.53
2022-08-29T05:03:35.164Z,101129.78
2022-08-29T05:07:38.921Z,101122.59
2022-08-29T05:11:42.830Z,101130.31
2022-08-29T05:15:47.471Z,101128.03
2022-08-29T05:19:50.610Z,101128.94
2022-08-29T05:23:53.830Z,101138.88
2022-08-29T05:27:56.825Z,101132.19
2022-08-29T05:32:02.538Z,101140.88
2022-08-29T05:36:06.141Z,101143.69
2022-08-29T05:40:09.919Z,101148.22
2022-08-29T05:44:13.047Z,101146.97
2022-08-29T05:48:18.469Z,101155.03
2022-08-29T05:52:22.125Z,101159.91
2022-08-29T05:56:27.448Z,101167.56
2022-08-29T06:00:30.562Z,101164.84
2022-08-29T06:04:35.358Z,101160.63
2022-08-29T06:08:38.440Z,101165.66
2022-08-29T06:12:41.566Z,101167.19
2022-08-29T06:16:44.917Z,101173.72
2022-08-29T06:20:49.350Z,101165.22
2022-08-29T06:24:55.026Z,101151.47
2022-08-29T06:29:00.997Z,101160.44
2022-08-29T06:33:04.293Z,101158.28
2022-08-29T06:37:09.021Z,101160.38
2022-08-29T06:41:13.727Z,101161.06
2022-08-29T06:45:16.968Z,101169.00
2022-08-29T06:49:22.055Z,101180.72
2022-08-29T06:53:32.095Z,101183.03
2022-08-29T06:57:35.800Z,101184.09
2022-08-29T07:01:39.617Z,101185.56
2022-08-29T07:05:42.763Z,101173.41
2022-08-29T07:09:47.132Z,101167.34
2022-08-29T07:13:50.289Z,101182.88
2022-08-29T07:17:57.877Z,101182.88
2022-08-29T07:22:03.128Z,101172.16
2022-08-29T07:26:15.606Z,101166.16
2022-08-29T07:30:19.546Z,101160.00
2022-08-29T07:34:23.107Z,101159.91
2022-08-29T07:38:26.471Z,101169.78
2022-08-29T07:42:30.919Z,101167.97
2022-08-29T07:46:34.199Z,101182.66
2022-08-29T07:50:37.198Z,101161.13
2022-08-29T07:54:40.255Z,101158.16
2022-08-29T07:58:44.891Z,101167.34
2022-08-29T08:02:48.967Z,101151.69
2022-08-29T08:06:52.300Z,101158.72
2022-08-29T15:15:29.525Z,100955.56
2022-08-29T15:23:56.301Z,100925.78
2022-08-29T15:28:01.151Z,100919.50
2022-08-29T15:32:08.978Z,100923.91
2022-08-29T15:36:14.776Z,100920.81
2022-08-29T15:40:21.062Z,100911.81
2022-08-29T15:44:26.748Z,100916.81
2022-08-29T15:48:35.657Z,100925.78
2022-08-29T16:16:15.974Z,100902.88
2022-08-29T16:20:19.404Z,100905.91
2022-08-29T16:24:24.125Z,100911.19
2022-08-29T16:28:28.871Z,100912.84
2022-08-29T16:32:33.241Z,100902.06
2022-08-29T16:36:37.161Z,100897.09
2022-08-29T16:40:40.205Z,100908.19
2022-08-29T16:44:43.211Z,100896.78
2022-08-29T16:48:47.593Z,100892.03
2022-08-29T16:52:50.614Z,100896.00
2022-08-29T16:56:53.704Z,100897.59
2022-08-29T17:00:56.722Z,100886.47
2022-08-29T17:05:03.275Z,100883.91
2022-08-29T17:09:08.668Z,100883.91
2022-08-29T17:13:11.782Z,100886.78
2022-08-29T17:17:16.661Z,100882.78
2022-08-29T17:21:23.551Z,100879.63
2022-08-29T17:25:29.410Z,100877.00
2022-08-29T17:29:34.599Z,100879.47
2022-08-29T17:33:38.285Z,100875.09
2022-08-29T17:37:45.124Z,100864.56
2022-08-29T17:41:52.798Z,100869.91
2022-08-29T17:45:59.482Z,100874.22
2022-08-29T17:50:04.768Z,100875.97
2022-08-29T17:54:14.875Z,100870.00
2022-08-29T18:09:36.524Z,100862.72
2022-08-29T18:13:42.359Z,100866.34
2022-08-29T18:17:47.824Z,100865.84
2022-08-29T18:21:53.956Z,100854.69
2022-08-29T18:26:01.238Z,100853.56
2022-08-29T18:30:09.278Z,100848.81
2022-08-29T18:34:13.445Z,100853.50
2022-08-29T18:38:17.161Z,100857.94
2022-08-29T18:42:39.289Z,100859.91
2022-08-29T18:46:47.849Z,100874.66
2022-08-29T18:50:51.564Z,100858.16
2022-08-29T18:54:54.856Z,100858.66
2022-08-29T18:58:59.730Z,100866.16
2022-08-29T19:03:05.075Z,100878.94
2022-08-29T19:07:09.343Z,100867.03
2022-08-29T19:11:13.111Z,100868.69
2022-08-29T19:15:18.697Z,100869.75
2022-08-29T19:19:21.775Z,100867.47
2022-08-29T19:23:24.858Z,100866.78
2022-08-29T19:27:42.789Z,100875.13
2022-08-29T19:31:47.950Z,100874.56
2022-08-29T19:35:53.677Z,100882.25
2022-08-29T19:39:56.963Z,100882.19
2022-08-29T19:44:00.768Z,100877.75
2022-08-29T19:48:06.123Z,100883.59
2022-08-29T19:52:09.712Z,100876.59
2022-08-29T19:56:14.431Z,100880.91
2022-08-29T20:00:19.809Z,100876.38
2022-08-29T20:04:24.385Z,100872.69
2022-08-29T20:08:29.298Z,100872.81
2022-08-29T20:12:35.181Z,100869.97
2022-08-29T20:16:39.863Z,100874.69
2022-08-29T20:20:46.367Z,100880.84
2022-08-29T20:24:50.494Z,100887.22
2022-08-29T20:28:54.267Z,100891.16
2022-08-29T20:32:57.386Z,100892.88
2022-08-29T20:37:10.533Z,100884.56
2022-08-29T20:41:13.509Z,100882.31
2022-08-29T20:45:18.800Z,100872.13
2022-08-29T20:49:25.264Z,100877.00
2022-08-29T20:53:32.081Z,100882.13
2022-08-29T20:57:39.149Z,100882.91
2022-08-29T21:01:43.369Z,100874.97
2022-08-29T21:05:46.606Z,100875.81
2022-08-29T21:09:51.916Z,100880.34
2022-08-29T21:13:55.614Z,100877.50
2022-08-29T21:17:58.796Z,100867.53
2022-08-29T21:22:03.685Z,100869.78
2022-08-29T21:26:08.270Z,100877.38
2022-08-29T21:30:12.631Z,100877.34
2022-08-29T21:34:16.016Z,100879.19
2022-08-29T21:38:19.430Z,100877.00
2022-08-29T21:42:23.800Z,100882.19
2022-08-29T21:46:29.609Z,100880.94
2022-08-29T21:50:32.750Z,100883.78
2022-08-29T21:54:35.790Z,100892.09
2022-08-29T21:58:40.216Z,100893.13
2022-08-29T22:02:44.499Z,100893.44
2022-08-29T22:06:52.779Z,100896.22
2022-08-29T22:10:56.007Z,100898.91
2022-08-29T22:15:17.682Z,100896.66
2022-08-29T22:19:21.062Z,100893.44
2022-08-29T22:23:24.830Z,100897.66
2022-08-29T22:27:27.862Z,100901.00
2022-08-29T22:31:32.535Z,100903.84
2022-08-29T22:35:37.246Z,100901.50
2022-08-29T22:39:40.320Z,100905.72
2022-08-29T22:43:44.140Z,100906.78
2022-08-29T22:47:48.560Z,100902.03
2022-08-29T22:51:51.541Z,100906.19
2022-08-29T22:55:54.555Z,100911.44
2022-08-29T22:59:57.563Z,100911.13
2022-08-29T23:04:02.346Z,100904.28
2022-08-29T23:08:05.514Z,100909.31
2022-08-29T23:12:09.246Z,100902.25
2022-08-29T23:16:12.440Z,100900.84
2022-08-29T23:20:17.389Z,100900.66
2022-08-29T23:24:22.417Z,100898.16
2022-08-29T23:28:25.562Z,100893.13
2022-08-29T23:32:29.698Z,100888.25
2022-08-29T23:36:34.374Z,100889.34
2022-08-29T23:40:38.354Z,100886.06
2022-08-29T23:44:41.377Z,100889.41
2022-08-29T23:48:44.784Z,100890.59
2022-08-29T23:52:49.172Z,100885.63
2022-08-29T23:56:53.473Z,100885.03
